• Join FlightAware (Why Join?)
  • Login
  • US Flag 
02:38PM EDT


 

Airport Tracker/Info


-or-


 

Live Flight TrackerFlight Track Log ✈ AVN11 ✈ 08-Oct-2013 ✈ YSSY / SYD - NVVV / VLI

Flight Track Log - Related Links

Times and Time Zones

All times are in EDT time to prevent confusion due to time zone crossing. See the AVN11 flight status page for this flight to view local times or setup timezone preferences in your user account.

Time Position Orientation Groundspeed Altitude Reporting Facility
EDT Latitude Longitude Course Direction KTS MPH feet Rate Location/Type
07:34AM -33.9452 151.1757 101° East 94 108  Level FlightAware ADS-B (YRAY)
07:34AM -33.9571 151.1788 168° South 160 184 600 Level FlightAware ADS-B (YRAY)
07:34AM -33.9721 151.1819 170° South 160 184 400 1,560 Climbing FlightAware ADS-B (YRAY)
07:35AM -33.9800 151.1814 183° South 162 186 800 2,280 Climbing FlightAware ADS-B (YRAY)
07:35AM -33.9823 151.1810 187° South 171 197 1,100 1,560 Climbing FlightAware ADS-B
07:35AM -33.9990 151.1788 186° South 181 208 1,400 1,080 Climbing FlightAware ADS-B
07:35AM -34.0045 151.1781 186° South 181 208 1,500 1,020 Climbing FlightAware ADS-B (YRAY)
07:35AM -34.0134 151.1770 186° South 197 227 1,700 1,260 Climbing FlightAware ADS-B (YRAY)
07:35AM -34.0217 151.1767 181° South 206 237 1,900 1,500 Climbing FlightAware ADS-B
07:36AM -34.0217 151.1767 181° South 217 250 2,300 2,040 Climbing FlightAware ADS-B
07:36AM -34.0506 151.1830 170° South 219 252 2,900 2,040 Climbing FlightAware ADS-B
07:36AM -34.0663 151.1885 164° South 236 272 3,300 1,740 Climbing FlightAware ADS-B
07:37AM -34.1005 151.1997 165° South 253 291 4,300 1,920 Climbing FlightAware ADS-B
07:37AM -34.1121 151.2059 156° South 260 299 4,700 2,400 Climbing FlightAware ADS-B
07:37AM -34.1217 151.2171 136° Southeast 264 304 5,100 2,100 Climbing FlightAware ADS-B
07:37AM -34.1273 151.2306 116° Southeast 271 312 5,400 1,800 Climbing FlightAware ADS-B
07:38AM -34.1326 151.2614 102° East 285 328 6,000 2,100 Climbing FlightAware ADS-B
07:38AM -34.1373 151.2940 100° East 292 336 6,800 2,700 Climbing FlightAware ADS-B
07:38AM -34.1382 151.3003 99° East 293 337 7,100 3,000 Climbing FlightAware ADS-B
07:38AM -34.1417 151.3258 99° East 294 338 7,800 2,700 Climbing FlightAware ADS-B
07:39AM -34.1421 151.3521 91° East 299 344 8,700 3,000 Climbing FlightAware ADS-B
07:39AM -34.1352 151.3735 69° East 302 348 9,300 3,120 Climbing FlightAware ADS-B
07:39AM -34.1276 151.3854 53° Northeast 305 351 9,800 2,640 Climbing FlightAware ADS-B
07:39AM -34.1164 151.3961 38° Northeast 301 346 10,100 1,800 Climbing FlightAware ADS-B
07:39AM -34.1011 151.4036 22° Northeast 330 380 10,400 1,320 Climbing FlightAware ADS-B
07:39AM -34.0879 151.4058 North 340 391 10,600 1,020 Climbing FlightAware ADS-B
07:40AM -34.0360 151.4104 North 376 433 11,100 1,380 Climbing FlightAware ADS-B
07:40AM -33.9817 151.4155 North 396 456 12,000 1,980 Climbing FlightAware ADS-B
07:41AM -33.9190 151.4216 North 410 472 13,200 2,220 Climbing FlightAware ADS-B
07:41AM -33.8804 151.4286 North 419 482 14,100 2,100 Climbing FlightAware ADS-B
07:42AM -33.8112 151.4540 17° North 441 507 15,200 2,100 Climbing FlightAware ADS-B
07:42AM -33.7532 151.4765 18° North 449 517 16,400 2,400 Climbing FlightAware ADS-B
07:43AM -33.6950 151.4989 18° North 456 525 17,700 2,220 Climbing FlightAware ADS-B
07:43AM -33.6299 151.5239 18° North 467 537 18,700 2,100 Climbing FlightAware ADS-B
07:44AM -33.5678 151.5478 18° North 474 545 19,800 2,280 Climbing FlightAware ADS-B
07:44AM -33.5030 151.5725 18° North 479 551 21,000 2,220 Climbing FlightAware ADS-B
07:45AM -33.4383 151.5973 18° North 485 558 22,100 1,920 Climbing FlightAware ADS-B
07:45AM -33.3699 151.6233 18° North 491 565 23,000 1,680 Climbing FlightAware ADS-B
07:46AM -33.3002 151.6498 18° North 500 575 23,900 1,620 Climbing FlightAware ADS-B
07:47AM -33.2167 151.6815 18° North 510 587 24,900 1,440 Climbing FlightAware ADS-B
07:47AM -33.1230 151.7169 18° North 521 600 25,800 1,320 Climbing FlightAware ADS-B
07:48AM -33.0529 151.7435 18° North 527 606 26,500 1,380 Climbing FlightAware ADS-B
07:48AM -32.9606 151.7784 18° North 534 615 27,400 1,320 Climbing FlightAware ADS-B
07:49AM -32.8613 151.8159 18° North 539 620 28,300 1,020 Climbing Aus ATC (RADAR)
07:49AM -32.8550 151.8180 18° North 538 619 28,200  Descending FlightAware
07:49AM -32.8335 151.8262 18° North 545 627 28,300 1,380 Climbing FlightAware ADS-B
07:50AM -32.6840 151.8820 18° North 541 623 29,900 1,680 Climbing FlightAware
07:50AM -32.6699 151.8876 18° North 545 627 30,200 1,860 Climbing Aus ATC (RADAR)
07:51AM -32.5970 151.9150 18° North 543 625 31,000 1,740 Climbing FlightAware
07:51AM -32.5140 151.9459 18° North 539 620 32,100 1,500 Climbing Aus ATC (RADAR)
07:52AM -32.5150 151.9450 18° North 538 619 31,900 780 Descending FlightAware
07:52AM -32.4360 151.9750 18° North 539 620 32,600 960 Climbing FlightAware
07:53AM -32.3300 152.0140 17° North 539 620 33,200 960 Climbing FlightAware
07:53AM -32.2440 152.0460 17° North 540 621 33,900 1,080 Climbing FlightAware
07:54AM -32.1580 152.0780 17° North 541 623 34,500 840 Climbing FlightAware
07:55AM -32.0630 152.1130 17° North 541 623 35,000 360 Climbing FlightAware
07:55AM -31.9790 152.1440 17° North 543 625 35,000  Level FlightAware
07:56AM -31.8930 152.1760 18° North 549 632 35,000  Level FlightAware
07:56AM -31.8090 152.2070 17° North 549 632 35,000 60 Level FlightAware
07:57AM -31.7269 152.2366 17° North 544 626 35,100  Climbing Aus ATC (RADAR)
07:57AM -31.7230 152.2380 17° North 547 629 35,000 -180 Descending FlightAware
07:58AM -31.6390 152.2690 17° North 546 628 35,000  Level FlightAware
07:58AM -31.5600 152.2980 17° North 545 627 35,000  Level FlightAware
07:59AM -31.4750 152.3290 17° North 544 626 35,000  Level FlightAware
07:59AM -31.3850 152.3610 17° North 544 626 35,000 60 Level FlightAware
08:00AM -31.3020 152.3920 18° North 552 635 35,100 660 Climbing FlightAware
08:01AM -31.2130 152.4240 17° North 551 634 35,800 720 Climbing FlightAware
08:01AM -31.1080 152.4620 17° North 547 629 36,200 240 Climbing FlightAware
08:02AM -31.0340 152.4880 17° North 547 629 36,200  Level FlightAware
08:03AM -30.9600 152.5150 17° North 547 629 36,200  Level FlightAware
08:03AM -30.8850 152.5410 17° North 547 629 36,200  Level FlightAware
08:04AM -30.8110 152.5680 17° North 547 629 36,200  Level FlightAware
08:04AM -30.7370 152.5940 17° North 547 629 36,200 660 Level FlightAware
08:05AM -30.5582 152.6608 18° North 563 648 37,000 720 Climbing FlightAware ADS-B (EKCH / CPH)
08:05AM -30.4825 152.6925 20° North 562 647 37,000  Level FlightAware ADS-B (EKCH / CPH)
08:06AM -30.4186 152.7320 28° Northeast 560 644 37,000  Level FlightAware ADS-B (EKCH / CPH)
08:06AM -30.3517 152.7822 33° Northeast 559 643 37,000  Level FlightAware ADS-B (EKCH / CPH)
08:07AM -30.2867 152.8310 33° Northeast 558 642 37,000  Level FlightAware ADS-B (EKCH / CPH)
08:07AM -30.2195 152.8811 33° Northeast 557 641 37,000  Level FlightAware ADS-B (EKCH / CPH)
08:08AM -30.1547 152.9295 33° Northeast 556 640 37,000  Level FlightAware ADS-B (EKCH / CPH)
08:09AM -30.0689 152.9932 33° Northeast 556 640 37,000  Level FlightAware ADS-B (EKCH / CPH)
08:09AM -30.0096 153.0370 33° Northeast 556 640 37,000  Level FlightAware ADS-B (EKCH / CPH)
08:10AM -29.9390 153.0891 33° Northeast 555 639 37,000  Level FlightAware ADS-B (EKCH / CPH)
08:10AM -29.8541 153.1518 33° Northeast 556 640 37,000  Level FlightAware ADS-B (EKCH / CPH)
08:11AM -29.7897 153.1993 33° Northeast 556 640 37,000  Level FlightAware ADS-B (EKCH / CPH)
08:11AM -29.7346 153.2400 33° Northeast 556 640 37,000  Level FlightAware ADS-B (EKCH / CPH)
08:12AM -29.6620 153.2920 32° Northeast 556 640 37,000  Level FlightAware
08:13AM -29.5266 153.3927 33° Northeast 556 640 37,000  Level FlightAware ADS-B (EKCH / CPH)
08:13AM -29.4603 153.4413 33° Northeast 556 640 37,000  Level FlightAware ADS-B (EKCH / CPH)
08:14AM -29.3959 153.4884 32° Northeast 555 639 37,000  Level FlightAware ADS-B (EKCH / CPH)
08:14AM -29.3340 153.5336 32° Northeast 555 639 37,000  Level FlightAware ADS-B (EKCH / CPH)
08:15AM -29.2670 153.5822 32° Northeast 555 639 37,000  Level FlightAware ADS-B (EKCH / CPH)
08:15AM -29.2012 153.6300 32° Northeast 553 636 37,000  Level FlightAware ADS-B (EKCH / CPH)
08:16AM -29.1389 153.6752 32° Northeast 553 636 37,000  Level FlightAware ADS-B (EKCH / CPH)
08:16AM -29.0757 153.7209 32° Northeast 553 636 37,000  Level FlightAware ADS-B (EKCH / CPH)
08:17AM -29.0076 153.7705 32° Northeast 552 635 37,000  Level FlightAware ADS-B (EKCH / CPH)
08:17AM -28.9440 153.8165 32° Northeast 552 635 37,000  Level FlightAware ADS-B (EKCH / CPH)
08:18AM -28.8770 153.8652 32° Northeast 550 633 37,000  Level FlightAware ADS-B (EKCH / CPH)
08:18AM -28.8126 153.9117 32° Northeast 549 632 37,000  Level FlightAware ADS-B (EKCH / CPH)
08:19AM -28.7508 153.9562 32° Northeast 547 629 37,000  Level FlightAware ADS-B (EKCH / CPH)
08:19AM -28.6848 154.0032 32° Northeast 545 627 37,000  Level FlightAware ADS-B (EKCH / CPH)
08:20AM -28.6248 154.0460 32° Northeast 546 628 37,000  Level FlightAware ADS-B (EKCH / CPH)
08:20AM -28.5614 154.0916 32° Northeast 545 627 37,000  Level FlightAware ADS-B (EKCH / CPH)
08:21AM -28.4916 154.1418 32° Northeast 545 627 37,000  Level FlightAware ADS-B (EKCH / CPH)
08:21AM -28.4287 154.1868 32° Northeast 545 627 37,000  Level FlightAware ADS-B (EKCH / CPH)
08:22AM -28.3664 154.2311 32° Northeast 544 626 37,000  Level FlightAware ADS-B (EKCH / CPH)
08:22AM -28.2821 154.2912 32° Northeast 543 625 37,000 120 Level FlightAware ADS-B (EKCH / CPH)
08:23AM -28.2056 154.3459 32° Northeast 524 603 37,200  Climbing Aus ATC (RADAR)
08:23AM -28.1529 154.3822 32° Northeast 541 623 37,000 -240 Descending FlightAware ADS-B (EKCH / CPH)
08:24AM -28.0750 154.4380 32° Northeast 543 625 37,000 120 Level FlightAware
08:24AM -28.0594 154.4497 32° Northeast 539 620 37,100  Climbing Aus ATC (RADAR)
08:24AM -28.0244 154.4738 32° Northeast 539 620 37,000 -120 Descending FlightAware ADS-B (EKCH / CPH)
08:25AM -27.9414 154.5325 32° Northeast 537 618 37,000  Level FlightAware ADS-B (EKCH / CPH)
08:26AM -27.8590 154.5907 32° Northeast 536 617 37,000  Level FlightAware ADS-B (EKCH / CPH)
08:26AM -27.7905 154.6390 32° Northeast 536 617 37,000  Level FlightAware ADS-B (EKCH / CPH)
08:27AM -27.7410 154.6740 32° Northeast 535 616 37,000  Level FlightAware
08:27AM -27.7082 154.6969 32° Northeast 534 615 37,000  Level FlightAware ADS-B (EKCH / CPH)
08:27AM -27.6457 154.7418 32° Northeast 533 613 37,000  Level FlightAware ADS-B (EKCH / CPH)
08:28AM -27.5932 154.7905 39° Northeast 534 615 37,000  Level FlightAware ADS-B (EKCH / CPH)
08:28AM -27.5412 154.8536 47° Northeast 533 613 37,000  Level FlightAware ADS-B (EKCH / CPH)
08:29AM -27.4898 154.9183 48° Northeast 533 613 37,000  Level FlightAware ADS-B (EKCH / CPH)
08:29AM -27.4406 154.9802 48° Northeast 533 613 37,000  Level FlightAware ADS-B (EKCH / CPH)
08:30AM -27.3918 155.0416 48° Northeast 533 613 37,000  Level FlightAware ADS-B (EKCH / CPH)
08:30AM -27.3425 155.1034 48° Northeast 533 613 37,000  Level FlightAware ADS-B (EKCH / CPH)
08:31AM -27.2774 155.1848 48° Northeast 532 612 37,000  Level FlightAware ADS-B (EKCH / CPH)
08:32AM -27.2104 155.2682 48° Northeast 532 612 37,000  Level FlightAware ADS-B (EKCH / CPH)
08:33AM -27.1307 155.3673 48° Northeast 530 610 37,000  Level FlightAware ADS-B (EKCH / CPH)
08:33AM -27.0883 155.4198 48° Northeast 529 609 37,000 60 Level FlightAware ADS-B (EKCH / CPH)
08:34AM -27.0174 155.5082 48° Northeast 525 604 37,100  Climbing Aus ATC (RADAR)
08:34AM -27.0210 155.5040 48° Northeast 528 608 37,000 -180 Descending FlightAware
08:34AM -26.9710 155.5660 48° Northeast 528 608 37,000  Level FlightAware
08:35AM -26.9355 155.6088 47° Northeast 529 609 37,000  Level FlightAware ADS-B (EKCH / CPH)
08:35AM -26.8823 155.6747 48° Northeast 528 608 37,000  Level FlightAware ADS-B (EKCH / CPH)
08:36AM -26.8376 155.7303 48° Northeast 527 606 37,000  Level FlightAware ADS-B (EKCH / CPH)
08:36AM -26.7839 155.7963 48° Northeast 526 605 37,000  Level FlightAware ADS-B (EKCH / CPH)
08:37AM -26.7367 155.8544 48° Northeast 525 604 37,000  Level FlightAware ADS-B (EKCH / CPH)
08:37AM -26.6863 155.9163 48° Northeast 524 603 37,000  Level FlightAware ADS-B (EKCH / CPH)
08:38AM -26.6380 155.9740 47° Northeast 523 602 37,000  Level FlightAware
08:38AM -26.6148 156.0043 49° Northeast 522 601 37,000  Level FlightAware ADS-B (EKCH / CPH)
08:38AM -26.5573 156.0745 48° Northeast 520 598 37,000  Level FlightAware ADS-B (EKCH / CPH)
08:39AM -26.4959 156.1496 48° Northeast 518 596 37,000  Level FlightAware ADS-B (EKCH / CPH)
08:40AM -26.4442 156.2130 48° Northeast 515 593 37,000  Level FlightAware ADS-B (EKCH / CPH)
08:40AM -26.3953 156.2726 48° Northeast 513 590 37,000  Level FlightAware ADS-B (EKCH / CPH)
08:41AM -26.3479 156.3305 48° Northeast 512 589 37,000 60 Level FlightAware ADS-B (EKCH / CPH)
08:41AM -26.2725 156.4219 48° Northeast 505 581 37,100  Climbing Aus ATC (RADAR)
08:41AM -26.2750 156.4180 48° Northeast 511 588 37,000 -480 Descending FlightAware
08:42AM -26.2525 156.4460 48° Northeast 510 587 37,000  Level FlightAware ADS-B (EKCH / CPH)
08:42AM -26.1899 156.5214 47° Northeast 516 594 37,000  Level FlightAware ADS-B (EKCH / CPH)
08:43AM -26.1320 156.5900 47° Northeast 516 594 37,000  Level FlightAware
08:43AM -26.0734 156.6622 48° Northeast 523 602 37,000  Level FlightAware ADS-B (EKCH / CPH)
08:44AM -26.0030 156.7470 47° Northeast 524 603 37,000  Level FlightAware
08:45AM -25.9520 156.8070 47° Northeast 524 603 37,000  Level FlightAware
08:45AM -25.9010 156.8680 47° Northeast 524 603 37,000  Level FlightAware
08:46AM -25.8510 156.9280 47° Northeast 524 603 37,000  Level FlightAware
08:47AM -25.8000 156.9880 47° Northeast 524 603 37,000  Level FlightAware
08:47AM -25.7470 157.0520 47° Northeast 524 603 37,000  Level FlightAware
08:48AM -25.6990 157.1090 47° Northeast 524 603 37,000  Level FlightAware
08:48AM -25.6258 157.1994 47° Northeast 520 598 37,000  Level Aus ATC (RADAR)
08:48AM -25.6470 157.1710 47° Northeast 524 603 37,000  Level FlightAware
08:49AM -25.5970 157.2310 47° Northeast 524 603 37,000  Level FlightAware
08:49AM -25.5052 157.3368 47° Northeast 525 604 37,000  Level Aus ATC (RADAR)
08:50AM -25.5450 157.2930 47° Northeast 524 603 37,000  Level FlightAware
08:50AM -25.4940 157.3530 47° Northeast 524 603 37,000  Level FlightAware
08:51AM -25.4430 157.4130 47° Northeast 524 603 37,000  Level FlightAware
08:51AM -25.3930 157.4730 47° Northeast 524 603 37,000  Level FlightAware
08:52AM -25.3420 157.5330 47° Northeast 524 603 37,000  Level FlightAware
08:53AM -25.2920 157.5930 47° Northeast 524 603 37,000  Level FlightAware
08:53AM -25.2410 157.6530 47° Northeast 524 603 37,000  Level FlightAware
08:54AM -25.0095 157.9247 47° Northeast 37,000  Level Aus ATC (Calculated)
08:55AM -24.9241 158.0250 67° East 37,000  Level Aus ATC (Calculated)
08:56AM -24.8917 158.1096 55° Northeast  Level Estimated
08:57AM -24.8013 158.2179 55° Northeast  Level Estimated
08:58AM -24.7236 158.3396 55° Northeast  Level Estimated
08:59AM -24.6458 158.4611 55° Northeast  Level Estimated
09:00AM -24.5679 158.5824 55° Northeast  Level Estimated
09:01AM -24.4899 158.7036 55° Northeast  Level Estimated
09:02AM -24.4118 158.8246 55° Northeast  Level Estimated
09:03AM -24.3336 158.9455 55° Northeast  Level Estimated
09:04AM -24.2553 159.0663 55° Northeast  Level Estimated
09:05AM -24.1769 159.1869 55° Northeast  Level Estimated
09:06AM -24.0984 159.3073 54° Northeast  Level Estimated
09:07AM -24.0198 159.4276 54° Northeast  Level Estimated
09:07AM -23.6560 159.4903 56° Northeast 37,000  Level Aus ATC (Calculated)
09:08AM -23.6210 159.5461 56° Northeast 37,000  Level Aus ATC (Calculated)
09:09AM -23.5611 159.6427 56° Northeast  Level Estimated
09:10AM -23.4690 159.7897 56° Northeast  Level Estimated
09:11AM -23.3929 159.9112 56° Northeast  Level Estimated
09:11AM -23.3796 159.9293 55° Northeast 37,000  Level Aus ATC (Calculated)
09:11AM -23.3181 160.0266 57° Northeast 37,000  Level Aus ATC (Calculated)
09:12AM -23.3034 160.0507 56° Northeast  Level Estimated
09:13AM -23.2258 160.1733 56° Northeast  Level Estimated
09:14AM -23.1499 160.2938 56° Northeast  Level Estimated
09:15AM -23.0738 160.4141 56° Northeast  Level Estimated
09:16AM -22.9977 160.5343 55° Northeast  Level Estimated
09:17AM -22.9215 160.6543 55° Northeast  Level Estimated
09:18AM -22.8452 160.7742 55° Northeast  Level Estimated
09:18AM -22.7787 160.8712 55° Northeast 37,000  Level Aus ATC (Calculated)
09:20AM -22.6602 161.0567 55° Northeast  Level Estimated
09:21AM -22.5837 161.1761 55° Northeast  Level Estimated
09:21AM -22.5621 161.2066 55° Northeast 37,000  Level Aus ATC (Calculated)
09:22AM -22.4855 161.3259 55° Northeast  Level Estimated
09:23AM -22.4087 161.4451 55° Northeast  Level Estimated
09:24AM -22.3319 161.5642 55° Northeast  Level Estimated
09:25AM -22.2550 161.6831 55° Northeast  Level Estimated
09:26AM -22.1780 161.8019 55° Northeast  Level Estimated
09:27AM -22.1009 161.9206 55° Northeast  Level Estimated
09:28AM -22.0237 162.0392 55° Northeast  Level Estimated
09:29AM -21.9465 162.1576 55° Northeast  Level Estimated
09:30AM -21.8692 162.2759 55° Northeast  Level Estimated
09:31AM -21.7148 162.4986 232° Southwest 37,000  Level Aus ATC (Calculated)
09:31AM -21.7917 162.3940 55° Northeast  Level Estimated
09:32AM -21.6373 162.6166 55° Northeast  Level Estimated
09:33AM -21.5598 162.7344 55° Northeast  Level Estimated
09:34AM -21.4821 162.8522 55° Northeast  Level Estimated
09:35AM -21.4044 162.9698 55° Northeast  Level Estimated
09:36AM -21.3266 163.0873 55° Northeast  Level Estimated
09:37AM -21.2487 163.2047 55° Northeast  Level Estimated
09:38AM -21.1708 163.3219 55° Northeast  Level Estimated
09:39AM -21.0927 163.4391 54° Northeast  Level Estimated
09:40AM -21.0146 163.5561 54° Northeast  Level Estimated
09:41AM -20.9364 163.6729 54° Northeast  Level Estimated
09:42AM -20.8581 163.7897 54° Northeast  Level Estimated
09:43AM -20.7798 163.9063 54° Northeast  Level Estimated
09:44AM -20.7013 164.0228 54° Northeast  Level Estimated
09:45AM -20.6228 164.1392 54° Northeast  Level Estimated
09:46AM -20.5442 164.2555 54° Northeast  Level Estimated
09:47AM -20.4655 164.3717 54° Northeast  Level Estimated
09:48AM -20.3868 164.4877 54° Northeast  Level Estimated
09:49AM -20.3079 164.6036 54° Northeast  Level Estimated
09:50AM -20.2290 164.7194 54° Northeast  Level Estimated
09:51AM -20.1501 164.8351 54° Northeast  Level Estimated
09:52AM -20.0710 164.9507 54° Northeast  Level Estimated
09:53AM -19.9919 165.0661 54° Northeast  Level Estimated
09:54AM -19.9127 165.1814 54° Northeast  Level Estimated
09:55AM -19.8334 165.2967 54° Northeast  Level Estimated
09:56AM -19.7540 165.4118 54° Northeast  Level Estimated
09:57AM -19.6746 165.5267 54° Northeast  Level Estimated
09:58AM -19.5951 165.6416 54° Northeast  Level Estimated
09:59AM -19.5155 165.7564 54° Northeast  Level Estimated
10:00AM -19.4359 165.8710 54° Northeast  Level Estimated
10:01AM -19.3562 165.9856 54° Northeast  Level Estimated
10:02AM -19.2764 166.1000 54° Northeast  Level Estimated
10:03AM -19.1965 166.2143 54° Northeast  Level Estimated
10:04AM -19.1166 166.3285 53° Northeast  Level Estimated
10:05AM -19.0366 166.4426 53° Northeast  Level Estimated
10:06AM -18.9565 166.5566 53° Northeast  Level Estimated
10:07AM -18.8764 166.6704 53° Northeast  Level Estimated
10:08AM -18.7962 166.7842 53° Northeast  Level Estimated
10:09AM -18.7159 166.8978 53° Northeast  Level Estimated
10:10AM -18.6355 167.0114 53° Northeast  Level Estimated
10:11AM -18.5551 167.1248 53° Northeast  Level Estimated
10:12AM -18.4746 167.2381 53° Northeast  Level Estimated
10:13AM -18.3941 167.3514 53° Northeast  Level Estimated
10:14AM -18.3135 167.4645 53° Northeast  Level Estimated
10:15AM -18.2328 167.5775 53° Northeast  Level Estimated
10:16AM -18.1520 167.6904 53° Northeast  Level Estimated
10:17AM -18.0712 167.8032 53° Northeast  Level Estimated
10:18AM -17.9903 167.9159 53° Northeast  Level Estimated
10:19AM -17.9094 168.0285 53° Northeast  Level Estimated
10:20AM -17.8284 168.1410 53° Northeast  Level Estimated
10:21AM -17.7473 168.2534 53° Northeast  Level Estimated
10:22AM -17.6993 168.3198 53° Northeast  Level Estimated
10:23AM -17.6993 168.3198 143° Southeast  Level Estimated
10:24AM -17.6993 168.3198 37° Northeast  Level Estimated
10:25AM -17.6993 168.3198 143° Southeast  Level Estimated
10:26AM -17.6993 168.3198 37° Northeast  Level Estimated
10:27AM -17.6993 168.3198 143° Southeast  Level Estimated
10:28AM -17.6993 168.3198 37° Northeast  Level Estimated
10:29AM -17.6993 168.3198 143° Southeast  Level Estimated
10:30AM -17.6993 168.3198 37° Northeast  Level Estimated
10:31AM -17.6993 168.3198 143° Southeast  Level Estimated
10:32AM -17.6993 168.3198 37° Northeast  Level Estimated
10:33AM -17.6993 168.3198 143° Southeast  Level Estimated
10:34AM -17.6993 168.3198 37° Northeast  Level Estimated
10:35AM -17.6993 168.3198 143° Southeast  Level Estimated
10:36AM -17.6993 168.3198 37° Northeast  Level Estimated
10:37AM -17.6993 168.3198 143° Southeast  Level Estimated
10:38AM -17.6993 168.3198 37° Northeast  Level Estimated
10:39AM -17.6993 168.3198 143° Southeast  Level Estimated
10:40AM -17.6993 168.3198 37° Northeast  Level Estimated
10:41AM -17.6993 168.3198 143° Southeast  Level Estimated